Little River, AL (36550)

5:18 PM CST on February 27, 2017 (GMT -0600)
Nokomis | | Change Station

Elev 269 ft 31.03 °N, 87.59 °W | Updated 9 seconds ago

Overcast
Overcast
56.8 °F
Feels Like 56.8 °F
N
4.0
Wind Variable Wind from WSW
Gusts 4.9 mph

Today
High -- | Low -- °F
--% Chance of Precip.
Yesterday
High -- | Low -- °F
Precip. -- in
Pressure 30.22 in
Visibility 6.0 miles
Clouds Mostly Cloudy 400 ft
Overcast 3700 ft
Dew Point 57 °F
Humidity 99%
Rainfall 0.32 in
Snow Depth Not available.
6:19 AM 5:47 PM
New Moon, 2% visible
SPECI KGZH 272302Z AUTO 08003KT 6SM -RA BR BKN004 OVC037 13/12 A3022 RMK AO2 P0001 T01330122
Pressure 30.22 in
Visibility 6.0 miles
Clouds Mostly Cloudy 400 ft
Overcast 3700 ft
Dew Point 57 °F
Humidity 99%
Rainfall 0.32 in
Snow Depth Not available.
6:19 AM 5:47 PM
New Moon, 2% visible
SPECI KGZH 272302Z AUTO 08003KT 6SM -RA BR BKN004 OVC037 13/12 A3022 RMK AO2 P0001 T01330122

Get Your Daily Forecast Email!

Thanks for signing up!

Be on the lookout for a verification email in your inbox.

You'll start receiving the daily forecast at 8 AM.

×

10-Day Weather Forecast

Almanac

Astronomy

Feb. 27, 2017 Rise Set
Actual Time
Civil Twilight
Nautical Twilight
Astronomical Twilight
Moon
Length of Visible Light
Length of Day
Tomorrow will be .
, % of the Moon is Illuminated

Today's Extremes

State Highs State Lows

Community

WunderPhotos

Upload Photos

1,962,540 photos uploaded!

WunderBlog® & News

Nearby

Air Quality

  Air Quality AQ Index Pollutant
Not available.

Snow Depth

Station Depth Elevation

Earthquake Activity

City Distance Mag. Time & Date
Minimum magnitude displayed is 2.5.

Coastal Water Temperatures

Place Temperature

Stations

Nearby Weather Stations

Station Location Temp. Windchill Dew Point Humidity Wind Precip. Elev Updated Type
                   

Watches & Warnings

There are currently no watches in effect.